Time;durP1;ratioP1;P1;durP2;ratioP2;P2;SDS_P1;SDS_P2;PMS_P1;PMS_P2;Temp;Humidity;BMP_temperature;BMP_pressure;BME280_temperature;BME280_humidity;BME280_pressure;Samples;Min_cycle;Max_cycle;Signal;HPM_P1;HPM_P2
2022/02/12 00:00:24;;;;;;;25.20;8.75;;;0.80;99.90;;;;;;5072771;28;20526;-45
2022/02/12 00:02:52;;;;;;;14.85;7.95;;;0.70;99.90;;;;;;5071238;28;20070;-45
2022/02/12 00:05:18;;;;;;;20.92;8.07;;;0.70;99.90;;;;;;5071419;28;20028;-46
2022/02/12 00:07:44;;;;;;;22.65;7.85;;;0.60;99.90;;;;;;5071581;28;20033;-48
2022/02/12 00:10:10;;;;;;;20.85;7.82;;;0.60;99.90;;;;;;5071511;28;20082;-45
2022/02/12 00:12:35;;;;;;;18.30;6.80;;;0.70;99.90;;;;;;5071340;28;20502;-45
2022/02/12 00:15:02;;;;;;;13.93;6.88;;;0.90;99.90;;;;;;5071376;28;20065;-48
2022/02/12 00:17:28;;;;;;;27.08;6.97;;;1.00;99.90;;;;;;5072933;28;20027;-46
2022/02/12 00:19:53;;;;;;;15.45;7.00;;;1.00;99.90;;;;;;5078133;28;20111;-43
2022/02/12 00:22:19;;;;;;;15.57;7.32;;;0.90;99.90;;;;;;5078078;28;20058;-48
2022/02/12 00:24:45;;;;;;;24.38;9.35;;;0.80;99.90;;;;;;5077762;28;20040;-44
2022/02/12 00:27:10;;;;;;;26.10;7.90;;;0.80;99.90;;;;;;5077964;28;20048;-44
2022/02/12 00:29:36;;;;;;;17.60;7.40;;;0.80;99.90;;;;;;5076838;28;20098;-44
2022/02/12 00:32:02;;;;;;;18.38;7.28;;;0.80;99.90;;;;;;5077910;28;20025;-46
2022/02/12 00:34:27;;;;;;;46.80;24.85;;;0.80;99.90;;;;;;5078156;28;20016;-51
2022/02/12 00:36:53;;;;;;;72.55;27.33;;;0.80;99.90;;;;;;5077904;28;20032;-48
2022/02/12 00:39:18;;;;;;;30.17;14.65;;;0.80;99.90;;;;;;5077447;28;20086;-44
2022/02/12 00:41:44;;;;;;;26.27;9.85;;;0.90;99.90;;;;;;5077885;28;20441;-47
2022/02/12 00:44:09;;;;;;;15.02;7.22;;;0.90;99.90;;;;;;5077525;28;20028;-45
2022/02/12 00:46:35;;;;;;;17.02;7.72;;;0.90;99.90;;;;;;5077666;28;20024;-45
2022/02/12 00:49:03;;;;;;;17.95;6.72;;;0.90;99.90;;;;;;5078037;28;20032;-45
2022/02/12 00:51:29;;;;;;;18.10;9.32;;;0.90;99.90;;;;;;5077746;28;20107;-47
2022/02/12 00:53:55;;;;;;;17.52;7.93;;;0.90;99.90;;;;;;5077542;28;20387;-46
2022/02/12 00:56:20;;;;;;;23.08;8.88;;;0.90;99.90;;;;;;5077697;28;20111;-48
2022/02/12 00:58:46;;;;;;;20.83;7.50;;;0.90;99.90;;;;;;5077507;28;20040;-44
2022/02/12 01:01:11;;;;;;;20.15;8.77;;;0.90;99.90;;;;;;5077554;28;20122;-45
2022/02/12 01:03:37;;;;;;;15.43;8.18;;;0.90;99.90;;;;;;5077362;28;20025;-45
2022/02/12 01:06:02;;;;;;;22.05;9.07;;;0.90;99.90;;;;;;5077904;28;20035;-44
2022/02/12 01:08:28;;;;;;;18.92;8.35;;;0.90;99.90;;;;;;5077635;28;20480;-47
2022/02/12 01:10:53;;;;;;;30.15;9.32;;;0.80;99.90;;;;;;5077642;28;20388;-46
2022/02/12 01:13:19;;;;;;;18.67;8.60;;;0.70;99.90;;;;;;5077190;28;20028;-44
2022/02/12 01:15:44;;;;;;;20.67;6.85;;;0.70;99.90;;;;;;5077495;28;20029;-44
2022/02/12 01:18:11;;;;;;;16.80;7.00;;;0.60;99.90;;;;;;5077958;28;20029;-44
2022/02/12 01:20:39;;;;;;;23.65;8.75;;;0.60;99.90;;;;;;5077566;28;20020;-44
2022/02/12 01:23:05;;;;;;;20.20;8.50;;;0.50;99.90;;;;;;5077292;28;20016;-45
2022/02/12 01:25:30;;;;;;;11.63;7.93;;;0.50;99.90;;;;;;5077533;28;20060;-50
2022/02/12 01:27:56;;;;;;;15.13;7.65;;;0.50;99.90;;;;;;5077427;28;20459;-49
2022/02/12 01:30:24;;;;;;;22.10;8.25;;;0.40;99.90;;;;;;5073436;28;20040;-45
2022/02/12 01:32:50;;;;;;;15.73;7.55;;;0.40;99.90;;;;;;5074044;28;20024;-45
2022/02/12 01:35:15;;;;;;;15.40;7.15;;;0.40;99.90;;;;;;5074361;28;20104;-44
2022/02/12 01:37:41;;;;;;;26.42;8.10;;;0.40;99.90;;;;;;5072864;28;20059;-45
2022/02/12 01:40:08;;;;;;;14.40;7.43;;;0.50;99.90;;;;;;5073685;28;20020;-45
2022/02/12 01:42:34;;;;;;;16.10;7.65;;;0.40;99.90;;;;;;5073904;28;20074;-45
2022/02/12 01:45:01;;;;;;;38.25;11.02;;;0.40;99.90;;;;;;5073897;28;20024;-44
2022/02/12 01:47:27;;;;;;;22.40;7.82;;;0.60;99.90;;;;;;5074131;28;20089;-47
2022/02/12 01:49:53;;;;;;;21.58;10.18;;;0.60;99.90;;;;;;5074064;28;20024;-43
2022/02/12 01:52:20;;;;;;;23.10;9.10;;;0.50;99.90;;;;;;5073786;28;20081;-46
2022/02/12 01:54:46;;;;;;;31.90;9.95;;;0.50;99.90;;;;;;5073488;28;20032;-46
2022/02/12 01:57:12;;;;;;;20.20;9.23;;;0.50;99.90;;;;;;5073846;28;20025;-46
2022/02/12 01:59:40;;;;;;;27.00;8.98;;;0.50;99.90;;;;;;5073591;28;20403;-46
2022/02/12 02:02:06;;;;;;;22.92;9.25;;;0.50;99.90;;;;;;5073657;28;20025;-45
2022/02/12 02:04:32;;;;;;;18.58;8.02;;;0.40;99.90;;;;;;5073833;28;20518;-47
2022/02/12 02:06:57;;;;;;;28.45;10.15;;;0.40;99.90;;;;;;5074204;28;20032;-48
2022/02/12 02:09:23;;;;;;;24.92;9.07;;;0.30;99.90;;;;;;5073797;28;20495;-45
2022/02/12 02:11:49;;;;;;;25.60;8.82;;;0.30;99.90;;;;;;5073495;28;20029;-44
2022/02/12 02:14:16;;;;;;;19.33;7.78;;;0.30;99.90;;;;;;5073288;28;20023;-44
2022/02/12 02:16:43;;;;;;;21.63;9.02;;;0.30;99.90;;;;;;5073655;28;20047;-46
2022/02/12 02:19:09;;;;;;;24.70;7.85;;;0.20;99.90;;;;;;5073350;28;20024;-46
2022/02/12 02:21:37;;;;;;;23.15;7.35;;;0.20;99.90;;;;;;5073233;28;20385;-45
2022/02/12 02:24:04;;;;;;;18.08;7.65;;;0.20;99.90;;;;;;5072928;28;20029;-43
2022/02/12 02:26:31;;;;;;;19.30;9.57;;;0.30;99.90;;;;;;5073255;28;20047;-48
2022/02/12 02:28:56;;;;;;;19.27;7.82;;;0.30;99.90;;;;;;5073226;28;20119;-45
2022/02/12 02:31:23;;;;;;;20.80;7.53;;;0.20;99.90;;;;;;5073023;28;20108;-45
2022/02/12 02:33:49;;;;;;;19.35;7.18;;;0.10;99.90;;;;;;5072806;28;20028;-45
2022/02/12 02:36:16;;;;;;;26.10;8.70;;;0.00;99.90;;;;;;5072962;28;20480;-47
2022/02/12 02:38:42;;;;;;;14.18;7.18;;;-0.20;99.90;;;;;;5072273;28;20028;-43
2022/02/12 02:41:08;;;;;;;15.20;7.75;;;-0.30;99.90;;;;;;5072620;28;20020;-48
2022/02/12 02:43:33;;;;;;;19.25;8.02;;;-0.40;99.90;;;;;;5072448;28;20028;-46
2022/02/12 02:45:59;;;;;;;19.40;9.60;;;-0.50;99.90;;;;;;5072887;28;20024;-49
2022/02/12 02:48:24;;;;;;;20.48;7.70;;;-0.50;99.90;;;;;;5072709;28;20033;-48
2022/02/12 02:56:18;;;;;;;21.83;7.93;;;-0.50;99.90;;;;;;5072945;28;20023;-45
2022/02/12 02:58:49;;;;;;;16.50;6.82;;;-0.40;99.90;;;;;;5071172;28;20107;-48
2022/02/12 03:01:20;;;;;;;16.20;7.40;;;-0.30;99.90;;;;;;5072506;28;20036;-45
2022/02/12 03:03:48;;;;;;;15.82;7.28;;;-0.30;99.90;;;;;;5072199;28;20066;-45
2022/02/12 03:06:15;;;;;;;16.90;7.35;;;-0.30;99.90;;;;;;5072562;28;20017;-46
2022/02/12 03:08:41;;;;;;;25.45;7.60;;;-0.30;99.90;;;;;;5071098;28;20031;-44
2022/02/12 03:11:08;;;;;;;24.20;6.95;;;-0.30;99.90;;;;;;5072506;28;20423;-48
2022/02/12 03:13:34;;;;;;;26.60;7.50;;;-0.20;99.90;;;;;;5072008;28;20470;-44
2022/02/12 03:16:00;;;;;;;19.13;7.82;;;-0.20;99.90;;;;;;5072647;28;20070;-45
2022/02/12 03:18:27;;;;;;;15.85;6.65;;;-0.10;99.90;;;;;;5072148;28;20069;-46
2022/02/12 03:20:52;;;;;;;16.77;6.65;;;-0.10;99.90;;;;;;5072389;28;20032;-46
2022/02/12 03:23:18;;;;;;;14.45;7.35;;;-0.10;99.90;;;;;;5071865;28;20036;-45
2022/02/12 03:25:44;;;;;;;13.35;6.30;;;-0.10;99.90;;;;;;5072209;28;20519;-47
2022/02/12 03:28:10;;;;;;;19.67;6.43;;;-0.10;99.90;;;;;;5072062;28;20039;-44
2022/02/12 03:30:42;;;;;;;20.08;6.75;;;-0.20;99.90;;;;;;5072168;28;20589;-46
2022/02/12 03:33:08;;;;;;;16.90;6.43;;;-0.20;99.90;;;;;;5071749;28;20038;-45
2022/02/12 03:35:35;;;;;;;13.35;5.63;;;-0.30;99.90;;;;;;5072035;28;20032;-44
2022/02/12 03:38:06;;;;;;;17.20;7.40;;;-0.40;99.90;;;;;;5072065;28;20017;-44
2022/02/12 03:40:33;;;;;;;21.00;6.40;;;-0.40;99.90;;;;;;5071962;28;20442;-48
2022/02/12 03:42:58;;;;;;;13.30;7.35;;;-0.40;99.90;;;;;;5071587;28;20099;-45
2022/02/12 03:45:24;;;;;;;16.25;6.57;;;-0.40;99.90;;;;;;5070510;28;20025;-44
2022/02/12 03:47:50;;;;;;;16.00;6.15;;;-0.40;99.90;;;;;;5071775;28;20160;-46
2022/02/12 03:50:16;;;;;;;13.13;5.82;;;-0.40;99.90;;;;;;5071900;28;20077;-46
2022/02/12 03:52:42;;;;;;;18.95;7.45;;;-0.40;99.90;;;;;;5071004;28;20031;-45
2022/02/12 03:55:08;;;;;;;16.85;6.22;;;-0.30;99.90;;;;;;5071872;28;20025;-45
2022/02/12 03:57:37;;;;;;;20.10;6.03;;;-0.40;99.90;;;;;;5072330;28;20024;-47
2022/02/12 04:00:06;;;;;;;12.88;6.82;;;-0.30;99.90;;;;;;5071607;28;20032;-46
2022/02/12 04:02:33;;;;;;;15.32;5.10;;;-0.30;99.90;;;;;;5071740;28;20075;-45
2022/02/12 04:04:58;;;;;;;15.70;5.60;;;-0.30;99.90;;;;;;5071395;28;20024;-45
2022/02/12 04:07:24;;;;;;;14.98;7.03;;;-0.30;99.90;;;;;;5071501;28;20373;-44
2022/02/12 04:09:49;;;;;;;15.10;5.53;;;-0.30;99.90;;;;;;5071501;28;20036;-45
2022/02/12 04:12:15;;;;;;;10.52;5.10;;;-0.30;99.90;;;;;;5071410;28;20025;-46
2022/02/12 04:14:40;;;;;;;17.63;6.07;;;-0.20;99.90;;;;;;5071303;28;20017;-48
2022/02/12 04:17:06;;;;;;;21.38;6.80;;;-0.30;99.90;;;;;;5070266;28;20033;-48
2022/02/12 04:19:31;;;;;;;17.88;7.40;;;-0.20;99.90;;;;;;5071388;28;20040;-44
2022/02/12 04:21:57;;;;;;;16.08;6.00;;;-0.20;99.90;;;;;;5071312;28;20029;-44
2022/02/12 04:24:23;;;;;;;21.27;6.57;;;-0.20;99.90;;;;;;5071099;28;20021;-45
2022/02/12 04:26:48;;;;;;;17.05;6.05;;;-0.20;99.90;;;;;;5071388;28;20095;-46
2022/02/12 04:29:14;;;;;;;16.50;7.90;;;-0.30;99.90;;;;;;5071305;28;20103;-44
2022/02/12 04:31:39;;;;;;;18.85;6.40;;;-0.30;99.90;;;;;;5071311;28;20029;-50
2022/02/12 04:34:05;;;;;;;19.77;7.50;;;-0.30;99.90;;;;;;5071049;28;20021;-44
2022/02/12 04:36:30;;;;;;;16.48;6.97;;;-0.40;99.90;;;;;;5071235;28;20464;-44
2022/02/12 04:38:56;;;;;;;19.02;7.35;;;-0.40;99.90;;;;;;5070659;28;20029;-47
2022/02/12 04:41:21;;;;;;;16.33;6.00;;;-0.40;99.90;;;;;;5071441;28;20758;-47
2022/02/12 04:43:48;;;;;;;17.40;6.35;;;-0.40;99.90;;;;;;5071031;28;20025;-45
2022/02/12 04:46:14;;;;;;;16.23;6.57;;;-0.50;99.90;;;;;;5071378;28;20388;-45
2022/02/12 04:48:39;;;;;;;18.10;6.90;;;-0.50;99.90;;;;;;5071017;28;20039;-46
2022/02/12 04:51:05;;;;;;;17.27;7.00;;;-0.60;99.90;;;;;;5071053;28;20035;-49
2022/02/12 04:53:30;;;;;;;22.88;8.82;;;-0.60;99.90;;;;;;5070857;28;20028;-45
2022/02/12 04:55:56;;;;;;;22.80;10.68;;;-0.70;99.90;;;;;;5071192;28;20407;-45
2022/02/12 04:58:21;;;;;;;16.20;7.05;;;-0.70;99.90;;;;;;5070981;28;20039;-47
2022/02/12 05:00:47;;;;;;;15.85;6.95;;;-0.80;99.90;;;;;;5071006;28;20082;-45
2022/02/12 05:03:12;;;;;;;18.50;7.93;;;-0.80;99.90;;;;;;5070622;28;20051;-45
2022/02/12 05:05:38;;;;;;;22.75;6.75;;;-0.80;99.90;;;;;;5074579;28;20066;-45
2022/02/12 05:08:03;;;;;;;21.13;6.47;;;-0.80;99.90;;;;;;5074654;28;20459;-49
2022/02/12 05:10:29;;;;;;;14.68;6.57;;;-0.80;99.90;;;;;;5074652;28;20028;-46
2022/02/12 05:12:54;;;;;;;21.25;7.30;;;-0.80;99.90;;;;;;5074669;28;20039;-44
2022/02/12 05:15:20;;;;;;;17.38;6.93;;;-0.90;99.90;;;;;;5075653;28;20528;-46
2022/02/12 05:17:45;;;;;;;17.30;6.68;;;-0.90;99.90;;;;;;5074483;28;20472;-46
2022/02/12 05:20:11;;;;;;;22.05;6.45;;;-0.90;99.90;;;;;;5074367;28;20125;-44
2022/02/12 05:22:36;;;;;;;26.80;7.90;;;-0.90;99.90;;;;;;5074243;28;20025;-43
2022/02/12 05:25:03;;;;;;;18.60;6.00;;;-1.10;99.90;;;;;;5074182;28;20028;-47
2022/02/12 05:27:28;;;;;;;15.05;6.80;;;-1.20;99.90;;;;;;5074377;28;20047;-50
2022/02/12 05:29:54;;;;;;;24.50;7.32;;;-1.20;99.90;;;;;;5074369;28;20016;-48
2022/02/12 05:32:20;;;;;;;15.13;6.80;;;-1.20;99.90;;;;;;5074158;28;20487;-45
2022/02/12 05:34:46;;;;;;;17.63;6.38;;;-1.20;99.90;;;;;;5073857;28;20053;-47
2022/02/12 05:37:12;;;;;;;11.27;6.50;;;-1.20;99.90;;;;;;5074252;28;20023;-45
2022/02/12 05:39:37;;;;;;;14.98;7.30;;;-1.20;99.90;;;;;;5073881;28;20024;-45
2022/02/12 05:42:03;;;;;;;19.10;5.60;;;-1.30;99.90;;;;;;5074169;28;20495;-43
2022/02/12 05:44:28;;;;;;;13.98;6.07;;;-1.30;99.90;;;;;;5073838;28;20111;-46
2022/02/12 05:46:54;;;;;;;16.35;6.05;;;-1.30;99.90;;;;;;5073987;28;20029;-45
2022/02/12 05:49:19;;;;;;;19.17;8.10;;;-1.30;99.90;;;;;;5073860;28;20487;-48
2022/02/12 05:51:45;;;;;;;24.40;7.20;;;-1.20;99.90;;;;;;5073979;28;20036;-46
2022/02/12 05:54:10;;;;;;;24.75;7.88;;;-1.30;99.90;;;;;;5073594;28;20028;-45
2022/02/12 05:56:36;;;;;;;24.83;7.57;;;-1.20;99.90;;;;;;5073909;28;20146;-48
2022/02/12 05:59:03;;;;;;;16.00;8.13;;;-1.20;99.90;;;;;;5074762;28;20033;-44
2022/02/12 06:01:29;;;;;;;21.42;7.50;;;-1.30;99.90;;;;;;5073841;28;20031;-46
2022/02/12 06:03:54;;;;;;;31.35;10.55;;;-1.20;99.90;;;;;;5073358;28;20025;-44
2022/02/12 06:06:20;;;;;;;21.33;8.13;;;-1.20;99.90;;;;;;5073761;28;20032;-45
2022/02/12 06:08:47;;;;;;;21.25;8.68;;;-1.30;99.90;;;;;;5073549;28;20051;-46
2022/02/12 06:11:12;;;;;;;25.20;7.40;;;-1.20;99.90;;;;;;5073643;28;20036;-45
2022/02/12 06:13:38;;;;;;;25.38;8.30;;;-1.30;99.90;;;;;;5072825;28;20024;-47
2022/02/12 06:16:04;;;;;;;23.27;8.45;;;-1.30;99.90;;;;;;5072711;28;20376;-48
2022/02/12 06:18:29;;;;;;;18.35;7.63;;;-1.30;99.90;;;;;;5073130;28;20150;-44
2022/02/12 06:20:56;;;;;;;27.85;8.95;;;-1.30;99.90;;;;;;5073418;28;20020;-43
2022/02/12 06:23:21;;;;;;;26.58;9.18;;;-1.30;99.90;;;;;;5073102;28;20074;-49
2022/02/12 06:25:48;;;;;;;23.67;9.65;;;-1.30;99.90;;;;;;5073337;28;20438;-45
2022/02/12 06:28:13;;;;;;;25.35;8.85;;;-1.30;99.90;;;;;;5073128;28;20024;-44
2022/02/12 06:30:39;;;;;;;20.40;9.25;;;-1.30;99.90;;;;;;5073352;28;20078;-44
2022/02/12 06:33:04;;;;;;;48.10;10.45;;;-1.30;99.90;;;;;;5072593;28;20027;-45
2022/02/12 06:35:30;;;;;;;25.67;8.57;;;-1.40;99.90;;;;;;5072984;28;20099;-45
2022/02/12 06:37:56;;;;;;;20.27;9.63;;;-1.40;99.90;;;;;;5072935;28;20016;-44
2022/02/12 06:40:22;;;;;;;22.52;7.95;;;-1.50;99.90;;;;;;5072787;28;20400;-48
2022/02/12 06:42:49;;;;;;;16.25;7.75;;;-1.50;99.90;;;;;;5072673;28;20051;-45
2022/02/12 06:45:15;;;;;;;18.20;7.55;;;-1.50;99.90;;;;;;5072818;28;20104;-45
2022/02/12 06:47:40;;;;;;;21.52;7.70;;;-1.40;99.90;;;;;;5072800;28;20113;-50
2022/02/12 06:50:06;;;;;;;18.63;8.38;;;-1.50;99.90;;;;;;5072649;28;20166;-45
2022/02/12 06:52:32;;;;;;;15.13;7.57;;;-1.50;99.90;;;;;;5072297;28;20028;-43
2022/02/12 06:54:57;;;;;;;24.98;9.18;;;-1.40;99.90;;;;;;5072347;28;20031;-46
2022/02/12 06:57:23;;;;;;;19.70;7.25;;;-1.30;99.90;;;;;;5072653;28;20017;-47
2022/02/12 06:59:49;;;;;;;19.33;8.73;;;-1.30;99.90;;;;;;5072402;28;20111;-46
2022/02/12 07:02:14;;;;;;;17.25;7.20;;;-1.10;99.90;;;;;;5072390;28;20162;-46
2022/02/12 07:04:40;;;;;;;15.52;7.80;;;-1.00;99.90;;;;;;5072352;28;20029;-47
2022/02/12 07:07:05;;;;;;;16.25;7.13;;;-0.90;99.90;;;;;;5071061;28;20482;-44
2022/02/12 07:09:31;;;;;;;18.70;7.43;;;-0.80;99.90;;;;;;5071780;28;20024;-44
2022/02/12 07:11:56;;;;;;;24.67;8.73;;;-0.80;99.90;;;;;;5072018;28;20047;-44
2022/02/12 07:14:23;;;;;;;17.45;6.70;;;-0.60;99.90;;;;;;5070959;28;20025;-47
2022/02/12 07:16:49;;;;;;;17.63;7.45;;;-0.40;99.90;;;;;;5068947;28;20017;-47
2022/02/12 07:19:14;;;;;;;16.73;6.40;;;-0.30;99.90;;;;;;5071431;28;20043;-46
2022/02/12 07:21:40;;;;;;;18.08;6.45;;;-0.30;99.90;;;;;;5071456;28;20515;-45
2022/02/12 07:24:06;;;;;;;17.45;6.70;;;-0.20;99.90;;;;;;5071389;28;20032;-46
2022/02/12 07:26:31;;;;;;;19.92;7.15;;;-0.10;99.90;;;;;;5071479;28;20035;-44
2022/02/12 07:28:57;;;;;;;15.60;6.80;;;-0.10;99.90;;;;;;5071172;28;20478;-45
2022/02/12 07:31:23;;;;;;;27.08;9.23;;;-0.10;99.90;;;;;;5071700;28;20028;-46
2022/02/12 07:33:48;;;;;;;17.30;7.30;;;-0.20;99.90;;;;;;5070866;28;20653;-43
2022/02/12 07:36:14;;;;;;;23.42;8.25;;;-0.20;99.90;;;;;;5071120;28;20040;-43
2022/02/12 07:38:39;;;;;;;19.85;7.45;;;-0.30;99.90;;;;;;5071552;28;20052;-44
2022/02/12 07:41:06;;;;;;;16.70;7.40;;;-0.30;99.90;;;;;;5071911;28;20174;-60
2022/02/12 07:43:31;;;;;;;21.00;6.82;;;-0.30;99.90;;;;;;5069931;28;20028;-44
2022/02/12 07:45:59;;;;;;;22.98;7.20;;;-0.40;99.90;;;;;;5071731;28;20032;-47
2022/02/12 07:48:25;;;;;;;17.27;7.00;;;-0.40;99.90;;;;;;5071282;28;20108;-46
2022/02/12 07:50:53;;;;;;;17.17;6.97;;;-0.40;99.90;;;;;;5071193;28;20035;-44
2022/02/12 07:53:19;;;;;;;15.85;6.90;;;-0.30;99.90;;;;;;5051293;28;20021;-46
2022/02/12 07:55:44;;;;;;;13.95;8.45;;;-0.30;99.90;;;;;;5058521;28;20031;-45
2022/02/12 07:58:10;;;;;;;15.20;7.15;;;-0.30;99.90;;;;;;5071372;28;20064;-46
2022/02/12 08:00:36;;;;;;;19.92;7.90;;;-0.20;99.90;;;;;;5071811;28;20032;-45
2022/02/12 08:03:02;;;;;;;16.85;7.00;;;0.00;99.90;;;;;;5071249;28;20024;-44
2022/02/12 08:05:27;;;;;;;14.00;6.88;;;-0.10;99.90;;;;;;5071561;28;20024;-44
2022/02/12 08:07:53;;;;;;;21.23;7.18;;;-0.10;99.90;;;;;;5071753;28;20050;-46
2022/02/12 08:13:03;;;;;;;15.90;7.60;;;0.10;99.90;;;;;;5070773;28;20031;-44
2022/02/12 08:15:28;;;;;;;14.50;7.22;;;0.20;99.90;;;;;;5071663;28;20017;-45
2022/02/12 08:17:55;;;;;;;26.77;7.13;;;0.20;99.90;;;;;;5070183;28;20476;-45
2022/02/12 08:20:21;;;;;;;17.58;8.63;;;0.20;99.90;;;;;;5071654;28;20086;-44
2022/02/12 08:22:47;;;;;;;13.82;6.30;;;0.30;99.90;;;;;;5069967;28;20035;-48
2022/02/12 08:25:13;;;;;;;13.93;7.50;;;0.30;99.90;;;;;;5071461;28;20547;-45
2022/02/12 08:27:38;;;;;;;24.45;7.00;;;0.40;99.90;;;;;;5071552;28;20060;-44
2022/02/12 08:30:06;;;;;;;13.70;6.45;;;0.50;99.90;;;;;;5070096;28;20064;-44
2022/02/12 08:32:31;;;;;;;10.68;6.78;;;0.50;99.90;;;;;;5069751;28;20020;-48
2022/02/12 08:34:57;;;;;;;14.25;6.47;;;0.60;99.90;;;;;;5071110;28;20349;-45
2022/02/12 08:37:23;;;;;;;18.35;7.43;;;0.60;99.90;;;;;;5071441;28;20396;-44
2022/02/12 08:39:49;;;;;;;17.95;7.28;;;0.60;99.90;;;;;;5073963;28;20031;-44
2022/02/12 08:42:18;;;;;;;13.13;6.15;;;0.70;99.90;;;;;;5075313;28;20373;-47
2022/02/12 08:44:43;;;;;;;13.13;5.95;;;0.80;99.90;;;;;;5075019;28;20549;-45
2022/02/12 08:47:12;;;;;;;23.13;6.90;;;0.80;99.90;;;;;;5075215;28;20059;-44
2022/02/12 08:49:38;;;;;;;15.48;5.68;;;0.90;99.90;;;;;;5075342;28;20024;-44
2022/02/12 08:52:04;;;;;;;18.13;6.90;;;0.90;99.90;;;;;;5073724;28;20032;-47
2022/02/12 08:54:29;;;;;;;15.20;6.55;;;1.00;99.90;;;;;;5074768;28;20506;-45
2022/02/12 08:56:56;;;;;;;16.23;7.00;;;1.00;99.90;;;;;;5075222;28;20096;-44
2022/02/12 08:59:21;;;;;;;15.65;7.05;;;1.20;99.90;;;;;;5074669;28;20082;-47
2022/02/12 09:01:47;;;;;;;20.92;6.65;;;1.30;99.90;;;;;;5073555;28;20028;-44
2022/02/12 09:04:12;;;;;;;26.10;7.35;;;1.40;99.90;;;;;;5074582;28;20017;-45
2022/02/12 09:06:39;;;;;;;12.50;6.30;;;1.50;99.90;;;;;;5075098;28;20025;-46
2022/02/12 09:09:08;;;;;;;17.00;6.15;;;1.50;99.90;;;;;;5074985;28;20028;-42
2022/02/12 09:11:39;;;;;;;21.02;7.95;;;1.60;99.90;;;;;;5074349;28;20021;-43
2022/02/12 09:14:06;;;;;;;11.70;6.18;;;1.60;99.90;;;;;;5073517;28;20051;-47
2022/02/12 09:16:31;;;;;;;14.32;5.78;;;1.60;99.90;;;;;;5074980;28;20016;-46
2022/02/12 09:18:57;;;;;;;13.00;5.95;;;1.70;99.90;;;;;;5074725;28;20077;-44
2022/02/12 09:21:23;;;;;;;12.32;6.15;;;1.80;99.90;;;;;;5074746;28;20028;-44
2022/02/12 09:23:49;;;;;;;12.85;5.85;;;2.00;99.90;;;;;;5073801;28;20025;-44
2022/02/12 09:26:15;;;;;;;16.05;6.03;;;3.10;99.90;;;;;;5072791;28;20487;-44
2022/02/12 09:28:40;;;;;;;17.45;5.47;;;3.70;99.90;;;;;;5073875;28;20043;-48
2022/02/12 09:31:06;;;;;;;9.30;4.85;;;4.70;99.90;;;;;;5070921;28;20535;-46
2022/02/12 09:33:32;;;;;;;12.57;5.68;;;5.20;99.90;;;;;;5072289;28;20032;-46
2022/02/12 09:35:57;;;;;;;16.55;4.93;;;6.10;99.90;;;;;;5072122;28;20487;-43
2022/02/12 09:38:24;;;;;;;14.32;5.03;;;;;;;;;;5073657;28;20391;-45
2022/02/12 09:40:50;;;;;;;17.20;4.95;;;7.00;99.90;;;;;;5063509;28;20032;-44
2022/02/12 09:43:20;;;;;;;18.63;5.20;;;7.50;99.90;;;;;;5073420;28;20112;-46
2022/02/12 09:46:02;;;;;;;11.57;5.28;;;8.10;99.90;;;;;;5071605;28;20120;-46
2022/02/12 09:48:28;;;;;;;7.32;4.30;;;8.60;98.80;;;;;;5072023;28;20124;-46
2022/02/12 09:50:58;;;;;;;13.35;6.50;;;9.40;98.00;;;;;;5072718;28;20024;-46
2022/02/12 09:53:23;;;;;;;14.23;5.32;;;10.30;96.10;;;;;;5073148;28;20048;-45
2022/02/12 09:55:49;;;;;;;17.48;4.22;;;10.70;94.20;;;;;;5073613;28;20373;-43
2022/02/12 09:58:15;;;;;;;9.13;4.63;;;10.80;93.60;;;;;;5073325;28;20103;-44
2022/02/12 10:00:41;;;;;;;11.52;4.85;;;11.00;93.50;;;;;;5056091;28;20017;-44
2022/02/12 10:03:07;;;;;;;8.02;4.03;;;11.00;93.20;;;;;;5072230;28;20035;-45
2022/02/12 10:05:32;;;;;;;13.77;4.85;;;11.60;92.30;;;;;;5074054;28;20060;-44
2022/02/12 10:08:09;;;;;;;9.57;4.55;;;11.40;91.80;;;;;;5073657;28;20100;-44
2022/02/12 10:10:36;;;;;;;9.27;3.97;;;11.60;91.50;;;;;;5073559;28;20123;-45
2022/02/12 10:13:27;;;;;;;11.80;4.00;;;11.90;91.60;;;;;;5073051;28;20032;-46
2022/02/12 10:15:57;;;;;;;14.00;4.32;;;11.70;90.60;;;;;;5073558;28;20024;-46
2022/02/12 10:18:24;;;;;;;8.55;4.30;;;12.00;90.50;;;;;;5073356;28;20020;-45
2022/02/12 10:20:51;;;;;;;9.95;4.30;;;12.20;90.20;;;;;;5073651;28;20543;-45
2022/02/12 10:23:21;;;;;;;10.10;4.53;;;12.40;89.30;;;;;;5072716;28;20031;-50
2022/02/12 10:26:09;;;;;;;8.80;4.05;;;12.60;89.60;;;;;;5073224;28;20024;-47
2022/02/12 10:28:36;;;;;;;12.90;4.07;;;12.80;87.40;;;;;;5072623;28;20090;-48
2022/02/12 10:31:03;;;;;;;6.47;3.83;;;13.20;87.70;;;;;;5072351;28;20055;-54
2022/02/12 10:33:30;;;;;;;12.98;4.07;;;13.30;84.20;;;;;;5071860;28;20020;-50
2022/02/12 10:35:58;;;;;;;7.15;4.25;;;13.50;84.50;;;;;;5073099;28;20040;-48
2022/02/12 10:38:33;;;;;;;10.75;4.28;;;13.20;86.10;;;;;;5072622;28;20036;-48
2022/02/12 10:41:13;;;;;;;7.75;4.25;;;13.00;85.50;;;;;;5073041;28;20028;-44
2022/02/12 10:43:40;;;;;;;8.43;3.92;;;12.50;87.60;;;;;;5072069;28;20452;-45
2022/02/12 10:46:07;;;;;;;7.75;3.70;;;12.10;87.40;;;;;;5050673;28;20040;-46
2022/02/12 10:48:35;;;;;;;8.60;4.07;;;11.60;87.80;;;;;;5072291;28;20033;-45
2022/02/12 10:51:03;;;;;;;9.77;4.32;;;10.90;90.10;;;;;;5071977;28;20060;-47
2022/02/12 10:53:29;;;;;;;8.65;4.18;;;10.70;90.60;;;;;;5072336;28;20081;-49
2022/02/12 10:55:59;;;;;;;9.38;4.75;;;10.60;91.30;;;;;;5072426;28;20129;-48
2022/02/12 10:58:25;;;;;;;10.88;4.40;;;10.40;92.00;;;;;;5072504;28;20445;-49
2022/02/12 11:00:51;;;;;;;10.07;3.70;;;10.30;92.30;;;;;;5072571;28;20060;-48
2022/02/12 11:03:19;;;;;;;72.65;40.63;;;10.20;92.40;;;;;;5071637;28;20060;-49
2022/02/12 11:05:51;;;;;;;71.40;35.25;;;10.20;92.90;;;;;;5072597;28;20025;-51
2022/02/12 11:08:23;;;;;;;20.33;11.25;;;10.00;92.80;;;;;;5072465;28;20317;-47
2022/02/12 11:10:49;;;;;;;7.53;3.88;;;9.70;93.80;;;;;;5072440;28;20368;-48
2022/02/12 11:13:14;;;;;;;13.80;4.07;;;9.70;94.00;;;;;;5072016;28;20031;-46
2022/02/12 11:15:41;;;;;;;9.13;4.28;;;9.60;94.20;;;;;;5072549;28;20017;-51
2022/02/12 11:18:12;;;;;;;13.73;4.20;;;9.40;94.60;;;;;;5072719;28;20016;-48
2022/02/12 11:20:39;;;;;;;8.98;4.15;;;9.20;95.00;;;;;;5072259;28;20438;-45
2022/02/12 11:23:20;;;;;;;8.98;3.85;;;9.20;95.50;;;;;;5071324;28;20032;-47
2022/02/12 11:25:49;;;;;;;12.80;3.70;;;8.90;95.50;;;;;;5072013;28;20032;-48
2022/02/12 11:28:16;;;;;;;12.68;4.20;;;8.80;96.00;;;;;;5072317;28;20029;-47
2022/02/12 11:30:42;;;;;;;7.80;4.20;;;8.60;96.20;;;;;;5072073;28;20031;-52
2022/02/12 11:33:20;;;;;;;11.57;3.75;;;8.40;97.00;;;;;;5070388;28;20174;-47
2022/02/12 11:36:04;;;;;;;7.55;4.18;;;;;;;;;;5072306;28;20478;-48
2022/02/12 11:38:33;;;;;;;10.98;4.70;;;8.00;99.90;;;;;;5071923;28;20392;-50
2022/02/12 11:41:22;;;;;;;9.10;3.33;;;7.80;97.90;;;;;;5071709;28;20365;-48
2022/02/12 11:43:48;;;;;;;10.85;3.17;;;7.80;97.50;;;;;;5071667;28;20047;-46
2022/02/12 11:46:14;;;;;;;7.95;3.58;;;7.70;97.50;;;;;;5071596;28;20029;-46
2022/02/12 11:48:42;;;;;;;7.47;3.22;;;7.60;98.00;;;;;;5071673;28;20020;-45
2022/02/12 11:51:15;;;;;;;5.60;2.95;;;7.40;98.00;;;;;;5072460;28;20514;-46
2022/02/12 11:53:46;;;;;;;12.52;3.72;;;7.30;98.00;;;;;;5071557;28;20098;-46
2022/02/12 11:56:52;;;;;;;5.03;3.08;;;7.30;98.60;;;;;;5072017;28;20103;-46
2022/02/12 11:59:19;;;;;;;5.23;2.83;;;7.30;98.10;;;;;;5082795;22;20064;-42
2022/02/12 12:01:45;;;;;;;13.93;3.55;;;7.30;98.00;;;;;;5051901;28;20777;-43
2022/02/12 12:04:11;;;;;;;10.68;4.40;;;7.10;98.30;;;;;;5050787;28;20100;-42
2022/02/12 12:07:02;;;;;;;7.82;3.15;;;7.10;98.80;;;;;;5051367;28;20013;-45
2022/02/12 12:09:34;;;;;;;6.45;2.75;;;7.10;98.70;;;;;;5030618;28;20603;-43
2022/02/12 12:12:20;;;;;;;5.50;3.10;;;7.10;98.60;;;;;;5031696;28;20034;-44
2022/02/12 12:14:47;;;;;;;8.73;3.25;;;7.10;98.70;;;;;;5029151;28;20021;-43
2022/02/12 12:17:14;;;;;;;10.68;3.78;;;7.10;98.80;;;;;;5030490;28;20393;-46
2022/02/12 12:19:42;;;;;;;8.25;3.38;;;7.10;98.80;;;;;;5031084;28;20104;-38
2022/02/12 12:22:12;;;;;;;10.68;3.78;;;7.10;99.00;;;;;;5031316;28;20083;-46
2022/02/12 12:24:39;;;;;;;4.20;2.40;;;7.10;99.10;;;;;;5034597;28;20083;-45
2022/02/12 12:27:05;;;;;;;6.50;2.80;;;7.10;99.10;;;;;;5051727;28;20033;-43
2022/02/12 12:32:21;;;;;;;6.15;3.00;;;7.00;98.90;;;;;;5040884;28;20560;-41
2022/02/12 12:34:51;;;;;;;7.30;3.03;;;7.10;98.70;;;;;;5050915;28;20081;-46
2022/02/12 12:37:21;;;;;;;6.70;4.22;;;7.10;98.60;;;;;;5051397;28;20362;-43
2022/02/12 12:39:47;;;;;;;9.38;3.72;;;7.20;99.00;;;;;;5047289;28;20066;-41
2022/02/12 12:42:16;;;;;;;5.25;3.20;;;7.20;98.60;;;;;;5047151;28;20045;-48
2022/02/12 12:44:42;;;;;;;8.02;3.00;;;7.10;98.70;;;;;;5050782;28;20366;-46
2022/02/12 12:47:08;;;;;;;6.82;3.03;;;7.00;98.70;;;;;;5051089;28;20024;-50
2022/02/12 12:49:39;;;;;;;8.63;3.53;;;6.90;98.80;;;;;;5045066;28;20030;-49
2022/02/12 12:52:07;;;;;;;7.82;2.65;;;7.00;98.80;;;;;;5038844;28;20086;-44